KANB/ANB METAR and TAF weather

Enter ICAO airport designator
Station Type Date Time Source
KANB METAR 2018/10/19 15:20 UTC NOAA

KANB 191520Z AUTO 05007KT 10SM BKN022 19/12 A3030 RMK AO2 T01890117


Station Type Date Time Source
KANB Decoded METAR 2018/10/19 15:20 UTC NOAA

ANNISTON METRO AIRPORT, AL, United States (KANB) 33-35N 085-51W 183M
Oct 19, 2018 - 11:20 AM EDT / 2018.10.19 1520 UTC
Wind: from the NE (050 degrees) at 8 MPH (7 KT):0
Visibility: 10 mile(s):0
Sky conditions: mostly cloudy
Temperature: 66.0 F (18.9 C)
Dew Point: 53.1 F (11.7 C)
Relative Humidity: 62%
Pressure (altimeter): 30.3 in. Hg (1026 hPa)
ob: KANB 191520Z AUTO 05007KT 10SM BKN022 19/12 A3030 RMK AO2 T01890117
cycle: 15

Station Type Date Time Source
KANB TAF 2018/10/19 12:58 UTC NOAA

TAF KANB 191157Z 1912/2012 05007KT P6SM BKN250
TEMPO 1912/1915 BKN010 BKN250
FM191500 07008KT P6SM BKN200
FM191800 19006KT P6SM SCT070 BKN150
FM200000 00000KT P6SM BKN100


Example: see airport list